createdAt,value
2022-12-03T00:01:35.893Z,78.80
2022-12-03T00:04:04.016Z,78.55
2022-12-03T00:06:34.703Z,79.17
2022-12-03T00:09:02.992Z,79.61
2022-12-03T00:11:32.641Z,80.09
2022-12-03T00:14:00.708Z,80.29
2022-12-03T00:16:28.797Z,80.23
2022-12-03T00:18:56.899Z,80.36
2022-12-03T00:21:25.062Z,79.91
2022-12-03T00:23:53.119Z,79.94
2022-12-03T00:26:21.214Z,80.20
2022-12-03T00:28:51.298Z,80.46
2022-12-03T00:31:21.430Z,80.80
2022-12-03T00:33:49.446Z,80.50
2022-12-03T00:36:17.405Z,80.79
2022-12-03T00:38:45.378Z,80.77
2022-12-03T00:41:13.370Z,80.80
2022-12-03T00:43:41.398Z,81.06
2022-12-03T00:46:10.915Z,80.82
2022-12-03T00:48:38.874Z,81.11
2022-12-03T00:51:07.216Z,81.38
2022-12-03T00:53:35.748Z,81.29
2022-12-03T00:56:03.724Z,81.01
2022-12-03T00:58:31.685Z,81.02
2022-12-03T01:00:59.827Z,81.34
2022-12-03T01:03:29.326Z,80.96
2022-12-03T01:05:57.338Z,81.54
2022-12-03T01:08:25.358Z,81.23
2022-12-03T01:10:53.398Z,81.37
2022-12-03T01:13:21.404Z,81.72
2022-12-03T01:15:49.422Z,81.73
2022-12-03T01:18:17.341Z,81.29
2022-12-03T01:20:46.635Z,81.29
2022-12-03T01:23:14.367Z,81.17
2022-12-03T01:25:42.375Z,80.92
2022-12-03T01:28:10.558Z,80.96
2022-12-03T01:30:59.134Z,80.81
2022-12-03T01:33:26.268Z,80.68
2022-12-03T01:35:55.563Z,80.75
2022-12-03T01:38:23.348Z,80.77
2022-12-03T01:40:51.723Z,81.23
2022-12-03T01:43:19.722Z,81.23
2022-12-03T01:45:47.736Z,81.16
2022-12-03T01:48:17.665Z,80.94
2022-12-03T01:50:46.430Z,81.37
2022-12-03T01:53:18.351Z,81.71
2022-12-03T01:55:48.759Z,81.73
2022-12-03T01:58:18.432Z,80.71
2022-12-03T02:00:46.229Z,80.47
2022-12-03T02:03:24.553Z,80.66
2022-12-03T02:05:52.733Z,79.89
2022-12-03T02:08:33.953Z,80.16
2022-12-03T02:11:04.496Z,80.19
2022-12-03T02:13:33.194Z,80.38
2022-12-03T02:16:01.159Z,80.39
2022-12-03T02:18:32.085Z,80.56
2022-12-03T02:21:22.035Z,80.74
2022-12-03T02:24:10.994Z,80.50
2022-12-03T02:26:54.741Z,80.39
2022-12-03T02:29:25.621Z,80.99
2022-12-03T02:31:59.663Z,80.67
2022-12-03T02:34:52.629Z,81.19
2022-12-03T02:37:30.198Z,80.98
2022-12-03T02:40:13.820Z,80.80
2022-12-03T02:43:02.715Z,81.35
2022-12-03T02:45:33.534Z,81.03
2022-12-03T02:48:22.860Z,81.09
2022-12-03T02:51:05.663Z,81.73
2022-12-03T02:53:42.240Z,81.54
2022-12-03T02:56:13.122Z,81.37
2022-12-03T02:58:44.981Z,81.30
2022-12-03T03:01:15.477Z,81.23
2022-12-03T03:03:44.764Z,80.89
2022-12-03T03:06:13.395Z,80.58
2022-12-03T03:08:42.607Z,81.09
2022-12-03T03:11:10.611Z,80.99
2022-12-03T03:13:40.285Z,81.21
2022-12-03T03:16:10.667Z,81.53
2022-12-03T03:18:39.547Z,81.68
2022-12-03T03:21:07.707Z,81.80
2022-12-03T03:23:38.139Z,81.59
2022-12-03T03:26:08.807Z,80.95
2022-12-03T03:28:40.058Z,81.04
2022-12-03T03:31:12.370Z,81.51
2022-12-03T03:33:42.655Z,80.89
2022-12-03T03:36:11.139Z,80.47
2022-12-03T03:38:40.285Z,80.57
2022-12-03T03:41:10.584Z,80.93
2022-12-03T03:43:42.220Z,80.55
2022-12-03T03:46:13.417Z,80.82
2022-12-03T03:48:42.717Z,80.76
2022-12-03T03:51:12.153Z,80.30
2022-12-03T03:53:42.711Z,81.31
2022-12-03T03:56:11.408Z,81.26
2022-12-03T03:58:39.860Z,81.46
2022-12-03T04:01:08.406Z,81.98
2022-12-03T04:03:38.195Z,82.00
2022-12-03T04:06:06.942Z,82.16
2022-12-03T04:08:34.910Z,82.30
2022-12-03T04:11:20.537Z,82.01
2022-12-03T04:13:48.509Z,82.16
2022-12-03T04:16:16.495Z,82.04
2022-12-03T04:18:45.850Z,82.31
2022-12-03T04:21:32.074Z,82.12
2022-12-03T04:24:00.096Z,81.55
2022-12-03T04:26:45.806Z,81.75
2022-12-03T04:29:15.215Z,81.68
2022-12-03T04:32:00.756Z,81.64
2022-12-03T04:34:47.734Z,81.15
2022-12-03T04:37:15.754Z,81.47
2022-12-03T04:39:44.050Z,81.63
2022-12-03T04:42:11.986Z,81.67
2022-12-03T04:44:40.100Z,81.50
2022-12-03T04:47:11.301Z,81.84
2022-12-03T04:49:42.575Z,81.66
2022-12-03T04:52:12.151Z,82.20
2022-12-03T04:54:40.581Z,82.45
2022-12-03T04:57:09.832Z,82.36
2022-12-03T04:59:38.522Z,82.52
2022-12-03T05:02:07.475Z,82.59
2022-12-03T05:04:35.594Z,82.54
2022-12-03T05:07:04.955Z,82.66
2022-12-03T05:09:33.820Z,82.41
2022-12-03T05:12:01.751Z,82.42
2022-12-03T05:14:29.702Z,82.10
2022-12-03T05:16:57.776Z,82.23
2022-12-03T05:19:46.075Z,81.75
2022-12-03T05:22:14.480Z,82.06
2022-12-03T05:24:43.389Z,81.99
2022-12-03T05:27:11.290Z,82.59
2022-12-03T05:29:39.235Z,82.47
2022-12-03T05:32:07.285Z,82.79
2022-12-03T05:34:35.283Z,82.86
2022-12-03T05:37:03.297Z,83.01
2022-12-03T05:39:32.649Z,82.71
2022-12-03T05:42:17.525Z,82.54
2022-12-03T05:44:45.502Z,82.44
2022-12-03T05:47:13.606Z,82.39
2022-12-03T05:49:41.737Z,82.25
2022-12-03T05:52:09.719Z,82.18
2022-12-03T05:54:39.054Z,82.21
2022-12-03T05:57:07.219Z,82.46
2022-12-03T05:59:35.369Z,81.95
2022-12-03T06:02:03.447Z,81.76
2022-12-03T06:04:31.421Z,81.88
2022-12-03T06:06:59.409Z,82.01
2022-12-03T06:09:27.357Z,81.98
2022-12-03T06:11:56.678Z,81.65
2022-12-03T06:14:24.447Z,81.27
2022-12-03T06:16:52.389Z,81.75
2022-12-03T06:19:20.411Z,81.37
2022-12-03T06:21:48.353Z,81.36
2022-12-03T06:24:16.311Z,81.00
2022-12-03T06:26:44.283Z,80.87
2022-12-03T06:29:13.618Z,80.83
2022-12-03T06:31:41.449Z,81.05
2022-12-03T06:34:09.445Z,79.92
2022-12-03T06:36:37.456Z,80.29
2022-12-03T06:39:05.617Z,80.50
2022-12-03T06:41:33.580Z,80.31
2022-12-03T06:44:01.648Z,80.43
2022-12-03T06:46:31.323Z,80.27
2022-12-03T06:48:59.397Z,79.97
2022-12-03T06:51:27.502Z,79.93
2022-12-03T06:53:55.560Z,79.70
2022-12-03T06:56:23.538Z,80.04
2022-12-03T06:58:51.488Z,80.23
2022-12-03T07:01:19.669Z,80.19
2022-12-03T07:03:49.222Z,79.99
2022-12-03T07:06:17.516Z,80.02
2022-12-03T07:08:45.530Z,80.19
2022-12-03T07:11:27.347Z,79.65
2022-12-03T07:13:58.842Z,79.14
2022-12-03T07:16:30.484Z,79.64
2022-12-03T07:18:59.826Z,78.64
2022-12-03T07:21:27.876Z,78.53
2022-12-03T07:23:55.847Z,79.04
2022-12-03T07:26:23.861Z,78.54
2022-12-03T07:28:51.790Z,77.64
2022-12-03T07:31:19.727Z,77.87
2022-12-03T07:33:47.796Z,77.34
2022-12-03T07:36:17.187Z,76.97
2022-12-03T07:38:45.079Z,77.51
2022-12-03T07:41:13.124Z,77.51
2022-12-03T07:43:41.150Z,77.18
2022-12-03T07:46:09.595Z,77.49
2022-12-03T07:48:37.571Z,76.80
2022-12-03T07:51:05.557Z,76.27
2022-12-03T07:53:36.174Z,75.37
2022-12-03T07:56:04.738Z,74.40
2022-12-03T07:58:32.828Z,73.48
2022-12-03T08:01:00.901Z,72.55
2022-12-03T08:03:29.013Z,71.56
2022-12-03T08:05:56.980Z,70.87
2022-12-03T08:08:24.925Z,69.70
2022-12-03T08:10:54.344Z,68.94
2022-12-03T08:13:22.334Z,68.55
2022-12-03T08:15:50.331Z,67.38
2022-12-03T08:18:20.457Z,66.38
2022-12-03T08:20:49.716Z,65.33
2022-12-03T08:23:19.854Z,65.57
2022-12-03T08:25:50.460Z,64.19
2022-12-03T08:28:22.036Z,64.14
2022-12-03T08:31:01.195Z,62.79
2022-12-03T08:33:33.624Z,62.36
2022-12-03T08:36:07.290Z,61.96
2022-12-03T08:38:35.420Z,60.44
2022-12-03T08:41:03.403Z,60.39
2022-12-03T08:43:42.133Z,59.31
2022-12-03T08:46:16.883Z,58.64
2022-12-03T08:48:49.007Z,58.36
2022-12-03T08:51:23.776Z,57.73
2022-12-03T08:53:59.693Z,56.94
2022-12-03T08:56:31.715Z,58.03
2022-12-03T08:59:07.860Z,57.22
2022-12-03T09:01:42.811Z,56.04
2022-12-03T09:04:26.306Z,56.44
2022-12-03T09:06:55.436Z,56.31
2022-12-03T09:09:23.215Z,56.21
2022-12-03T09:11:51.407Z,55.55
2022-12-03T09:14:22.787Z,55.91
2022-12-03T09:16:52.111Z,56.31
2022-12-03T09:19:20.191Z,55.40
2022-12-03T09:21:50.246Z,55.16
2022-12-03T09:24:20.827Z,54.66
2022-12-03T09:26:48.906Z,54.48
2022-12-03T09:29:17.084Z,54.81
2022-12-03T09:31:46.568Z,54.50
2022-12-03T09:34:14.600Z,53.32
2022-12-03T09:36:42.588Z,54.43
2022-12-03T09:39:10.525Z,53.23
2022-12-03T09:41:38.701Z,52.93
2022-12-03T09:44:09.602Z,52.16
2022-12-03T09:46:43.017Z,49.94
2022-12-03T09:49:16.419Z,50.14
2022-12-03T09:51:45.354Z,49.75
2022-12-03T09:54:20.414Z,49.02
2022-12-03T09:56:48.520Z,50.23
2022-12-03T09:59:17.276Z,49.60
2022-12-03T10:01:45.752Z,49.07
2022-12-03T10:04:15.311Z,48.21
2022-12-03T10:06:45.983Z,48.68
2022-12-03T10:09:18.334Z,48.62
2022-12-03T10:11:46.328Z,48.21
2022-12-03T10:14:17.937Z,48.56
2022-12-03T10:16:46.324Z,47.83
2022-12-03T10:19:20.514Z,49.07
2022-12-03T10:21:48.504Z,48.37
2022-12-03T10:24:22.629Z,48.19
2022-12-03T10:26:52.898Z,47.99
2022-12-03T10:29:26.830Z,47.05
2022-12-03T10:31:59.251Z,47.97
2022-12-03T10:34:31.691Z,49.32
2022-12-03T10:37:11.804Z,49.78
2022-12-03T10:40:01.886Z,48.91
2022-12-03T10:42:32.180Z,49.63
2022-12-03T10:45:19.117Z,48.88
2022-12-03T10:48:06.752Z,49.12
2022-12-03T10:50:36.823Z,50.27
2022-12-03T10:53:05.347Z,50.56
2022-12-03T10:55:38.930Z,51.71
2022-12-03T10:58:06.976Z,51.19
2022-12-03T11:00:35.328Z,51.16
2022-12-03T11:03:03.323Z,50.89
2022-12-03T11:05:31.322Z,50.87
2022-12-03T11:08:00.698Z,51.01
2022-12-03T11:10:28.919Z,53.06
2022-12-03T11:13:46.252Z,54.05
2022-12-03T11:16:15.384Z,54.28
2022-12-03T11:19:02.675Z,54.27
2022-12-03T11:21:31.573Z,53.46
2022-12-03T11:24:21.915Z,52.34
2022-12-03T11:27:26.649Z,52.14
2022-12-03T11:30:00.201Z,51.37
2022-12-03T11:33:01.789Z,51.83
2022-12-03T11:35:37.528Z,50.77
2022-12-03T11:38:50.728Z,49.86
2022-12-03T11:41:24.631Z,49.43
2022-12-03T11:44:31.956Z,50.07
2022-12-03T11:47:08.945Z,50.25
2022-12-03T11:49:39.493Z,49.89
2022-12-03T11:52:26.514Z,49.41
2022-12-03T11:54:58.680Z,49.96
2022-12-03T11:57:34.911Z,50.22
2022-12-03T12:00:10.956Z,51.08
2022-12-03T12:02:43.029Z,51.36
2022-12-03T12:05:27.610Z,51.87
2022-12-03T12:07:57.052Z,51.99
2022-12-03T12:10:40.306Z,52.61
2022-12-03T12:13:27.273Z,53.54
2022-12-03T12:15:55.362Z,54.67
2022-12-03T12:18:41.037Z,55.46
2022-12-03T12:21:41.000Z,55.26
2022-12-03T12:24:36.349Z,56.15
2022-12-03T12:27:07.726Z,57.15
2022-12-03T12:29:39.479Z,56.70
2022-12-03T12:32:16.348Z,57.32
2022-12-03T12:34:45.808Z,57.46
2022-12-03T12:37:15.566Z,57.14
2022-12-03T12:39:43.893Z,56.80
2022-12-03T12:42:33.094Z,57.67
2022-12-03T12:45:17.343Z,56.93
2022-12-03T12:47:51.008Z,57.25
2022-12-03T12:50:20.574Z,57.59
2022-12-03T12:52:51.927Z,57.97
2022-12-03T12:55:20.846Z,57.78
2022-12-03T12:57:48.942Z,57.25
2022-12-03T13:00:22.427Z,56.84
2022-12-03T13:02:54.779Z,56.83
2022-12-03T13:05:22.832Z,57.34
2022-12-03T13:07:54.069Z,57.91
2022-12-03T13:10:42.018Z,58.46
2022-12-03T13:13:23.324Z,58.93
2022-12-03T13:15:59.710Z,59.31
2022-12-03T13:18:42.361Z,59.73
2022-12-03T13:21:22.030Z,59.93
2022-12-03T13:23:52.235Z,59.80
2022-12-03T13:26:36.176Z,59.56
2022-12-03T13:29:14.500Z,60.23
2022-12-03T13:31:50.185Z,60.08
2022-12-03T13:34:21.702Z,59.27
2022-12-03T13:36:57.059Z,58.84
2022-12-03T13:39:30.662Z,59.51
2022-12-03T13:42:17.753Z,59.87
2022-12-03T13:44:48.186Z,59.07
2022-12-03T13:47:21.440Z,59.41
2022-12-03T13:49:53.859Z,58.90
2022-12-03T13:52:25.627Z,60.67
2022-12-03T13:54:55.922Z,60.33
2022-12-03T13:57:24.323Z,60.12
2022-12-03T13:59:52.545Z,61.23
2022-12-03T14:02:22.280Z,61.20
2022-12-03T14:04:52.166Z,61.22
2022-12-03T14:07:23.373Z,61.44
2022-12-03T14:09:51.787Z,61.17
2022-12-03T14:12:33.656Z,62.09
2022-12-03T14:15:02.028Z,62.10
2022-12-03T14:17:31.935Z,62.63
2022-12-03T14:20:01.022Z,62.30
2022-12-03T14:22:28.795Z,63.81
2022-12-03T14:24:56.840Z,63.41
2022-12-03T14:27:25.474Z,64.55
2022-12-03T14:29:53.929Z,65.09
2022-12-03T14:32:22.256Z,65.46
2022-12-03T14:34:51.603Z,66.07
2022-12-03T14:37:19.624Z,66.07
2022-12-03T14:39:47.575Z,67.40
2022-12-03T14:42:15.612Z,66.83
2022-12-03T14:44:45.006Z,67.06
2022-12-03T14:47:13.564Z,67.70
2022-12-03T14:49:41.819Z,67.48
2022-12-03T14:52:12.649Z,67.82
2022-12-03T14:54:42.495Z,68.29
2022-12-03T14:57:12.528Z,68.35
2022-12-03T14:59:40.718Z,68.45
2022-12-03T15:02:09.143Z,68.59
2022-12-03T15:04:37.688Z,68.93
2022-12-03T15:07:06.206Z,69.11
2022-12-03T15:09:35.742Z,69.42
2022-12-03T15:12:03.986Z,69.73
2022-12-03T15:14:32.043Z,70.04
2022-12-03T15:17:00.061Z,70.45
2022-12-03T15:19:28.045Z,70.55
2022-12-03T15:21:56.055Z,71.07
2022-12-03T15:24:24.113Z,70.79
2022-12-03T15:26:53.595Z,71.17
2022-12-03T15:29:21.978Z,71.25
2022-12-03T15:31:50.087Z,71.04
2022-12-03T15:34:22.436Z,71.51
2022-12-03T15:36:51.045Z,71.28
2022-12-03T15:39:19.035Z,72.20
2022-12-03T15:41:46.967Z,73.14
2022-12-03T15:44:16.344Z,72.81
2022-12-03T15:46:44.471Z,73.55
2022-12-03T15:49:12.450Z,73.02
2022-12-03T15:51:40.445Z,74.26
2022-12-03T15:54:08.445Z,73.69
2022-12-03T15:56:37.704Z,73.43
2022-12-03T15:59:05.886Z,74.21
2022-12-03T16:01:35.371Z,73.64
2022-12-03T16:04:03.386Z,74.43
2022-12-03T16:06:31.381Z,74.35
2022-12-03T16:08:59.298Z,74.26
2022-12-03T16:11:27.308Z,74.23
2022-12-03T16:13:55.260Z,74.49
2022-12-03T16:16:23.235Z,74.53
2022-12-03T16:18:52.706Z,74.52
2022-12-03T16:21:25.082Z,74.96
2022-12-03T16:23:54.837Z,74.57
2022-12-03T16:26:22.839Z,75.07
2022-12-03T16:28:50.834Z,74.83
2022-12-03T16:31:19.255Z,75.49
2022-12-03T16:33:47.420Z,75.17
2022-12-03T16:36:17.192Z,74.99
2022-12-03T16:38:45.139Z,75.25
2022-12-03T16:41:13.204Z,74.70
2022-12-03T16:43:41.211Z,75.03
2022-12-03T16:46:25.593Z,75.85
2022-12-03T16:48:55.317Z,75.07
2022-12-03T16:51:25.682Z,75.17
2022-12-03T16:53:53.935Z,74.73
2022-12-03T16:56:22.127Z,75.47
2022-12-03T16:58:50.046Z,75.03
2022-12-03T17:01:18.460Z,75.91
2022-12-03T17:03:46.570Z,75.40
2022-12-03T17:06:14.577Z,75.33
2022-12-03T17:08:49.142Z,75.71
2022-12-03T17:11:17.966Z,76.87
2022-12-03T17:13:46.377Z,76.79
2022-12-03T17:16:14.432Z,76.95
2022-12-03T17:18:42.719Z,76.62
2022-12-03T17:21:10.680Z,77.02
2022-12-03T17:23:38.619Z,77.16
2022-12-03T17:26:08.200Z,76.31
2022-12-03T17:28:36.169Z,77.18
2022-12-03T17:31:04.177Z,76.69
2022-12-03T17:33:32.333Z,77.35
2022-12-03T17:36:00.302Z,77.04
2022-12-03T17:38:29.254Z,76.62
2022-12-03T17:40:59.606Z,76.55
2022-12-03T17:43:29.024Z,75.92
2022-12-03T17:45:57.234Z,76.61
2022-12-03T17:48:25.212Z,76.95
2022-12-03T17:50:55.332Z,76.78
2022-12-03T17:53:23.217Z,76.39
2022-12-03T17:55:51.115Z,76.75
2022-12-03T17:58:19.114Z,76.24
2022-12-03T18:00:48.506Z,76.87
2022-12-03T18:03:16.456Z,75.99
2022-12-03T18:05:44.417Z,77.15
2022-12-03T18:08:12.454Z,76.96
2022-12-03T18:10:40.487Z,76.39
2022-12-03T18:13:08.423Z,76.82
2022-12-03T18:15:36.427Z,77.31
2022-12-03T18:18:05.988Z,76.97
2022-12-03T18:20:34.207Z,76.57
2022-12-03T18:23:02.476Z,77.01
2022-12-03T18:25:30.945Z,76.63
2022-12-03T18:27:58.902Z,76.61
2022-12-03T18:30:26.886Z,77.01
2022-12-03T18:32:54.887Z,77.23
2022-12-03T18:35:24.503Z,76.98
2022-12-03T18:37:52.871Z,77.30
2022-12-03T18:40:24.760Z,76.92
2022-12-03T18:42:54.247Z,76.96
2022-12-03T18:45:22.226Z,77.70
2022-12-03T18:47:50.223Z,78.08
2022-12-03T18:50:18.657Z,77.82
2022-12-03T18:52:48.002Z,77.68
2022-12-03T18:55:17.694Z,77.62
2022-12-03T18:57:45.801Z,77.35
2022-12-03T19:00:15.111Z,77.54
2022-12-03T19:05:31.404Z,77.41
2022-12-03T19:08:01.039Z,77.27
2022-12-03T19:10:29.072Z,77.39
2022-12-03T19:12:57.141Z,77.77
2022-12-03T19:15:25.099Z,77.78
2022-12-03T19:17:53.065Z,77.09
2022-12-03T19:20:21.100Z,77.62
2022-12-03T19:22:49.101Z,77.85
2022-12-03T19:25:18.762Z,77.44
2022-12-03T19:27:46.700Z,77.91
2022-12-03T19:30:15.172Z,78.00
2022-12-03T19:32:43.229Z,78.18
2022-12-03T19:35:11.418Z,78.05
2022-12-03T19:37:39.566Z,78.32
2022-12-03T19:40:10.611Z,78.31
2022-12-03T19:42:40.104Z,77.69
2022-12-03T19:45:08.963Z,77.55
2022-12-03T19:47:37.061Z,78.17
2022-12-03T19:50:06.038Z,77.73
2022-12-03T19:52:36.424Z,78.04
2022-12-03T19:55:05.164Z,78.53
2022-12-03T19:57:33.183Z,77.94
2022-12-03T20:00:02.535Z,78.39
2022-12-03T20:02:40.549Z,78.12
2022-12-03T20:05:08.729Z,77.73
2022-12-03T20:07:36.731Z,78.03
2022-12-03T20:10:05.283Z,78.09
2022-12-03T20:12:34.016Z,78.34
2022-12-03T20:15:03.317Z,77.85
2022-12-03T20:17:31.038Z,78.16
2022-12-03T20:19:58.952Z,77.76
2022-12-03T20:22:26.895Z,77.96
2022-12-03T20:24:54.889Z,78.06
2022-12-03T20:27:23.256Z,78.12
2022-12-03T20:29:51.394Z,77.69
2022-12-03T20:32:20.986Z,78.01
2022-12-03T20:34:49.688Z,77.69
2022-12-03T20:37:18.169Z,77.64
2022-12-03T20:39:46.119Z,78.01
2022-12-03T20:42:14.031Z,77.33
2022-12-03T20:44:42.069Z,77.61
2022-12-03T20:47:10.174Z,77.33
2022-12-03T20:49:40.293Z,77.34
2022-12-03T20:52:08.262Z,77.74
2022-12-03T20:54:36.248Z,77.09
2022-12-03T20:57:04.474Z,77.61
2022-12-03T20:59:32.864Z,78.10
2022-12-03T21:02:00.926Z,77.50
2022-12-03T21:04:29.057Z,77.49
2022-12-03T21:06:58.453Z,77.30
2022-12-03T21:09:26.504Z,77.45
2022-12-03T21:11:54.547Z,77.59
2022-12-03T21:14:24.821Z,77.54
2022-12-03T21:17:10.437Z,77.32
2022-12-03T21:19:39.037Z,77.04
2022-12-03T21:22:08.702Z,77.48
2022-12-03T21:24:36.671Z,77.69
2022-12-03T21:27:04.779Z,77.30
2022-12-03T21:29:32.734Z,77.32
2022-12-03T21:32:00.707Z,77.56
2022-12-03T21:34:35.572Z,77.18
2022-12-03T21:37:04.674Z,77.19
2022-12-03T21:39:34.274Z,77.28
2022-12-03T21:42:34.859Z,77.11
2022-12-03T21:44:50.327Z,77.08
2022-12-03T21:47:18.262Z,77.58
2022-12-03T21:49:46.251Z,77.17
2022-12-03T21:52:14.227Z,76.88
2022-12-03T21:54:43.557Z,77.40
2022-12-03T21:57:11.649Z,76.85
2022-12-03T21:59:39.614Z,77.22
2022-12-03T22:02:07.910Z,77.43
2022-12-03T22:04:36.023Z,76.87
2022-12-03T22:07:04.546Z,77.00
2022-12-03T22:09:33.692Z,76.84
2022-12-03T22:12:03.079Z,76.59
2022-12-03T22:14:31.391Z,76.62
2022-12-03T22:16:59.354Z,76.18
2022-12-03T22:19:27.605Z,76.28
2022-12-03T22:21:55.675Z,76.55
2022-12-03T22:24:24.108Z,76.62
2022-12-03T22:26:53.524Z,76.47
2022-12-03T22:29:23.340Z,76.44
2022-12-03T22:31:51.508Z,76.33
2022-12-03T22:34:19.441Z,76.54
2022-12-03T22:36:47.437Z,76.40
2022-12-03T22:39:15.445Z,76.08
2022-12-03T22:41:43.384Z,76.05
2022-12-03T22:44:11.835Z,76.28
2022-12-03T22:46:41.321Z,76.37
2022-12-03T22:49:09.363Z,76.32
2022-12-03T22:51:37.341Z,76.87
2022-12-03T22:54:05.636Z,76.16
2022-12-03T22:56:34.009Z,75.59
2022-12-03T22:59:02.040Z,75.81
2022-12-03T23:01:31.956Z,76.01
2022-12-03T23:04:02.125Z,76.17
2022-12-03T23:06:30.517Z,76.43
2022-12-03T23:08:59.695Z,76.42
2022-12-03T23:11:28.640Z,76.59
2022-12-03T23:13:56.866Z,76.10
2022-12-03T23:16:27.944Z,76.34
2022-12-03T23:18:55.981Z,76.35
2022-12-03T23:21:29.946Z,76.83
2022-12-03T23:23:58.743Z,76.79
2022-12-03T23:26:27.291Z,76.77
2022-12-03T23:28:55.494Z,77.21
2022-12-03T23:31:26.493Z,76.95
2022-12-03T23:33:55.405Z,77.06
2022-12-03T23:36:26.583Z,76.94
2022-12-03T23:38:55.227Z,77.33
2022-12-03T23:41:24.688Z,76.81
2022-12-03T23:43:53.205Z,77.32
2022-12-03T23:46:23.313Z,77.47
2022-12-03T23:48:52.013Z,77.17
2022-12-03T23:51:22.501Z,76.88
2022-12-03T23:53:52.893Z,77.15
2022-12-03T23:56:23.036Z,76.59
2022-12-03T23:58:51.185Z,76.68
